Terminal Aerodrome Forecast
Issued by NWS

Home | Current Version | Previous Version | Text Only | Print | Product List | Glossary On
Versions: 1 2 3 4 5 6 7 8 9 10 11 12 13 14 15 16 17 18
386
FTUS43 KGRR 252000 AAA
TAFMKG
TAF AMD
KMKG 252000Z 2520/2618 34011KT P6SM SCT025 BKN035
     FM260000 34007KT P6SM SCT050
     FM260800 VRB03KT 1SM BR BKN003
     FM261400 21004KT P6SM SCT035 BKN100=

USA.gov is the U.S. government's official web portal to all federal, state and local government web resources and services.